Time,TemperatureF,DewpointF,PressureIn,WindDirection,WindDirectionDegrees,WindSpeedMPH,WindSpeedGustMPH,Humidity,HourlyPrecipIn,Conditions,Clouds,dailyrainin,SoftwareType,DateUTC
2013-05-05 00:04:00,54.8,42.4,30.09,SSE,148,0.0,0.0,63,0.00,,,0.00,Wunderground v.1.15,2013-05-05 04:04:00,
2013-05-05 00:09:00,55.0,42.2,30.09,SSE,148,0.0,0.0,62,0.00,,,0.00,Wunderground v.1.15,2013-05-05 04:09:00,
2013-05-05 00:14:00,55.3,41.6,30.09,SSE,148,0.0,0.0,60,0.00,,,0.00,Wunderground v.1.15,2013-05-05 04:14:00,
2013-05-05 00:24:00,56.5,41.0,30.10,SSE,148,0.0,0.0,56,0.00,,,0.00,Wunderground v.1.15,2013-05-05 04:24:00,
2013-05-05 00:29:00,56.9,40.9,30.10,SSE,148,0.0,0.0,55,0.00,,,0.00,Wunderground v.1.15,2013-05-05 04:29:00,
2013-05-05 00:39:00,55.9,41.3,30.10,SSE,148,0.0,0.0,58,0.00,,,0.00,Wunderground v.1.15,2013-05-05 04:39:00,
2013-05-05 00:49:00,53.6,41.3,30.10,SSE,148,0.0,0.0,63,0.00,,,0.00,Wunderground v.1.15,2013-05-05 04:49:00,
2013-05-05 00:54:00,54.2,41.0,30.10,SSE,148,0.0,0.0,61,0.00,,,0.00,Wunderground v.1.15,2013-05-05 04:54:00,
2013-05-05 01:04:00,55.6,41.0,30.10,SSE,148,0.0,0.0,58,0.00,,,0.00,Wunderground v.1.15,2013-05-05 05:04:00,
2013-05-05 01:14:00,56.6,40.1,30.10,SSE,165,0.0,0.0,54,0.00,,,0.00,Wunderground v.1.15,2013-05-05 05:14:00,
2013-05-05 01:24:00,57.6,39.6,30.10,South,178,0.0,0.0,51,0.00,,,0.00,Wunderground v.1.15,2013-05-05 05:24:00,
2013-05-05 01:34:00,57.8,39.8,30.10,South,175,0.0,0.0,51,0.00,,,0.00,Wunderground v.1.15,2013-05-05 05:34:00,
2013-05-05 01:39:00,57.6,39.1,30.10,South,169,0.0,0.0,50,0.00,,,0.00,Wunderground v.1.15,2013-05-05 05:39:00,
2013-05-05 01:49:00,58.0,39.5,30.10,South,181,0.0,0.0,50,0.00,,,0.00,Wunderground v.1.15,2013-05-05 05:49:00,
2013-05-05 01:59:00,57.6,39.1,30.10,South,171,0.0,0.0,50,0.00,,,0.00,Wunderground v.1.15,2013-05-05 05:59:00,
2013-05-05 02:04:00,57.3,39.3,30.10,South,172,0.0,0.0,51,0.00,,,0.00,Wunderground v.1.15,2013-05-05 06:04:00,
2013-05-05 02:14:00,57.0,39.5,30.10,South,181,0.0,0.0,52,0.00,,,0.00,Wunderground v.1.15,2013-05-05 06:14:00,
2013-05-05 02:24:00,56.9,39.4,30.10,South,181,0.0,0.0,52,0.00,,,0.00,Wunderground v.1.15,2013-05-05 06:24:00,
2013-05-05 02:34:00,56.9,39.4,30.10,South,187,0.0,0.0,52,0.00,,,0.00,Wunderground v.1.15,2013-05-05 06:34:00,
2013-05-05 02:44:00,56.6,40.1,30.10,SSW,198,0.0,0.0,54,0.00,,,0.00,Wunderground v.1.15,2013-05-05 06:44:00,
2013-05-05 02:54:00,56.0,40.1,30.10,SSW,202,0.0,0.0,55,0.00,,,0.00,Wunderground v.1.15,2013-05-05 06:54:00,
2013-05-05 02:59:00,56.0,40.1,30.10,SSW,209,0.0,0.0,55,0.00,,,0.00,Wunderground v.1.15,2013-05-05 06:59:00,
2013-05-05 03:04:00,55.9,40.4,30.10,SSW,209,0.0,0.0,56,0.00,,,0.00,Wunderground v.1.15,2013-05-05 07:04:00,
2013-05-05 03:14:00,56.0,40.1,30.10,South,182,0.0,0.0,55,0.00,,,0.00,Wunderground v.1.15,2013-05-05 07:14:00,
2013-05-05 03:24:00,55.7,40.2,30.10,SSW,197,0.0,0.0,56,0.00,,,0.00,Wunderground v.1.15,2013-05-05 07:24:00,
2013-05-05 03:34:00,55.6,40.1,30.10,SW,214,0.0,0.0,56,0.00,,,0.00,Wunderground v.1.15,2013-05-05 07:34:00,
2013-05-05 03:44:00,55.3,40.3,30.10,SSW,213,0.0,0.0,57,0.00,,,0.00,Wunderground v.1.15,2013-05-05 07:44:00,
2013-05-05 03:54:00,55.0,40.0,30.10,SSW,213,0.0,0.0,57,0.00,,,0.00,Wunderground v.1.15,2013-05-05 07:54:00,
2013-05-05 04:04:00,54.1,40.1,30.10,SSW,213,0.0,0.0,59,0.00,,,0.00,Wunderground v.1.15,2013-05-05 08:04:00,
2013-05-05 04:14:00,53.3,39.8,30.10,SSW,213,0.0,0.0,60,0.00,,,0.00,Wunderground v.1.15,2013-05-05 08:14:00,
2013-05-05 04:19:00,53.6,40.0,30.10,SSW,213,0.0,0.0,60,0.00,,,0.00,Wunderground v.1.15,2013-05-05 08:19:00,
2013-05-05 04:29:00,54.2,39.7,30.10,SSW,201,0.0,0.0,58,0.00,,,0.00,Wunderground v.1.15,2013-05-05 08:29:00,
2013-05-05 04:39:00,54.4,39.9,30.10,SSW,201,0.0,0.0,58,0.00,,,0.00,Wunderground v.1.15,2013-05-05 08:39:00,
2013-05-05 04:49:00,53.9,39.9,30.10,SSW,201,0.0,0.0,59,0.00,,,0.00,Wunderground v.1.15,2013-05-05 08:49:00,
2013-05-05 04:59:00,53.3,39.8,30.10,SSW,201,0.0,0.0,60,0.00,,,0.00,Wunderground v.1.15,2013-05-05 08:59:00,
2013-05-05 05:04:00,53.1,39.6,30.11,SSW,201,0.0,0.0,60,0.00,,,0.00,Wunderground v.1.15,2013-05-05 09:04:00,
2013-05-05 05:14:00,52.8,39.7,30.11,SSW,201,0.0,0.0,61,0.00,,,0.00,Wunderground v.1.15,2013-05-05 09:14:00,
2013-05-05 05:19:00,52.6,39.5,30.11,SSW,201,0.0,0.0,61,0.00,,,0.00,Wunderground v.1.15,2013-05-05 09:19:00,
2013-05-05 05:29:00,52.6,39.5,30.11,SSW,201,0.0,0.0,61,0.00,,,0.00,Wunderground v.1.15,2013-05-05 09:29:00,
2013-05-05 05:39:00,52.5,39.4,30.11,SSW,201,0.0,0.0,61,0.00,,,0.00,Wunderground v.1.15,2013-05-05 09:39:00,
2013-05-05 05:49:00,52.3,39.7,30.11,SSW,201,0.0,0.0,62,0.00,,,0.00,Wunderground v.1.15,2013-05-05 09:49:00,
2013-05-05 05:59:00,51.9,39.3,30.11,SSW,201,0.0,0.0,62,0.00,,,0.00,Wunderground v.1.15,2013-05-05 09:59:00,
2013-05-05 06:04:00,51.6,39.4,30.12,SSW,201,0.0,0.0,63,0.00,,,0.00,Wunderground v.1.15,2013-05-05 10:04:00,
2013-05-05 06:14:00,50.7,39.4,30.12,SSW,201,0.0,0.0,65,0.00,,,0.00,Wunderground v.1.15,2013-05-05 10:14:00,
2013-05-05 06:19:00,50.7,39.4,30.12,SSW,201,0.0,0.0,65,0.00,,,0.00,Wunderground v.1.15,2013-05-05 10:19:00,
2013-05-05 06:29:00,50.7,39.4,30.12,SSW,201,0.0,0.0,65,0.00,,,0.00,Wunderground v.1.15,2013-05-05 10:29:00,
2013-05-05 06:39:00,51.3,39.5,30.13,SSW,201,0.0,0.0,64,0.00,,,0.00,Wunderground v.1.15,2013-05-05 10:39:00,
2013-05-05 06:49:00,51.7,39.9,30.13,SSW,201,0.0,0.0,64,0.00,,,0.00,Wunderground v.1.15,2013-05-05 10:49:00,
2013-05-05 06:59:00,52.0,39.8,30.13,SSW,201,0.0,0.0,63,0.00,,,0.00,Wunderground v.1.15,2013-05-05 10:59:00,
2013-05-05 07:04:00,52.3,40.5,30.13,SSW,201,0.0,0.0,64,0.00,,,0.00,Wunderground v.1.15,2013-05-05 11:04:00,
2013-05-05 07:14:00,53.5,40.8,30.13,SSW,201,0.0,0.0,62,0.00,,,0.00,Wunderground v.1.15,2013-05-05 11:14:00,
2013-05-05 07:24:00,54.1,40.9,30.13,SSW,201,0.0,0.0,61,0.00,,,0.00,Wunderground v.1.15,2013-05-05 11:24:00,
2013-05-05 07:34:00,54.1,41.4,30.13,SSW,201,0.0,0.0,62,0.00,,,0.00,Wunderground v.1.15,2013-05-05 11:34:00,
2013-05-05 07:44:00,54.5,41.3,30.14,SSW,201,0.0,0.0,61,0.00,,,0.00,Wunderground v.1.15,2013-05-05 11:44:00,
2013-05-05 07:54:00,55.1,41.9,30.14,SSW,195,0.0,0.0,61,0.00,,,0.00,Wunderground v.1.15,2013-05-05 11:54:00,
2013-05-05 08:04:00,55.9,42.6,30.14,SSW,194,0.0,0.0,61,0.00,,,0.00,Wunderground v.1.15,2013-05-05 12:04:00,
2013-05-05 08:14:00,56.6,42.9,30.14,SSW,196,0.0,0.0,60,0.00,,,0.00,Wunderground v.1.15,2013-05-05 12:14:00,
2013-05-05 08:23:00,57.2,42.5,30.15,SW,234,0.0,0.0,58,0.00,,,0.00,Wunderground v.1.15,2013-05-05 12:23:00,
2013-05-05 08:29:00,57.5,42.8,30.15,WSW,240,0.0,0.0,58,0.00,,,0.00,Wunderground v.1.15,2013-05-05 12:29:00,
2013-05-05 08:35:00,57.6,42.0,30.15,SW,233,0.0,0.0,56,0.00,,,0.00,Wunderground v.1.15,2013-05-05 12:35:00,
2013-05-05 08:45:00,58.0,42.4,30.15,WSW,239,0.0,0.0,56,0.00,,,0.00,Wunderground v.1.15,2013-05-05 12:45:00,
2013-05-05 08:50:00,58.3,42.7,30.15,SW,225,0.0,0.0,56,0.00,,,0.00,Wunderground v.1.15,2013-05-05 12:50:00,
2013-05-05 09:00:00,58.9,43.7,30.15,SW,232,0.0,0.0,57,0.00,,,0.00,Wunderground v.1.15,2013-05-05 13:00:00,
2013-05-05 09:05:00,59.5,43.8,30.15,SW,235,0.0,0.0,56,0.00,,,0.00,Wunderground v.1.15,2013-05-05 13:05:00,
2013-05-05 09:15:00,60.4,44.2,30.15,SW,236,0.0,0.0,55,0.00,,,0.00,Wunderground v.1.15,2013-05-05 13:15:00,
2013-05-05 09:24:00,60.5,42.8,30.15,SW,234,0.0,0.0,52,0.00,,,0.00,Wunderground v.1.15,2013-05-05 13:24:00,
2013-05-05 09:30:00,60.9,43.1,30.15,SW,233,0.0,0.0,52,0.00,,,0.00,Wunderground v.1.15,2013-05-05 13:30:00,
2013-05-05 09:40:00,61.3,43.0,30.15,SW,234,0.0,0.0,51,0.00,,,0.00,Wunderground v.1.15,2013-05-05 13:40:00,
2013-05-05 09:49:00,62.1,44.3,30.14,West,265,0.0,0.0,52,0.00,,,0.00,Wunderground v.1.15,2013-05-05 13:49:00,
2013-05-05 09:55:00,62.1,42.7,30.14,WSW,239,0.0,0.0,49,0.00,,,0.00,Wunderground v.1.15,2013-05-05 13:55:00,
2013-05-05 10:05:00,62.7,42.7,30.14,WSW,238,0.0,0.0,48,0.00,,,0.00,Wunderground v.1.15,2013-05-05 14:05:00,
2013-05-05 10:15:00,63.7,44.2,30.14,SW,231,0.0,0.0,49,0.00,,,0.00,Wunderground v.1.15,2013-05-05 14:15:00,
2013-05-05 10:24:00,63.9,43.8,30.14,SW,234,0.0,0.0,48,0.00,,,0.00,Wunderground v.1.15,2013-05-05 14:24:00,
2013-05-05 10:30:00,63.9,43.3,30.14,SW,234,0.0,0.0,47,0.00,,,0.00,Wunderground v.1.15,2013-05-05 14:30:00,
2013-05-05 10:40:00,64.8,44.1,30.13,SSW,199,0.0,0.0,47,0.00,,,0.00,Wunderground v.1.15,2013-05-05 14:40:00,
2013-05-05 10:49:00,65.5,44.7,30.14,SW,215,0.0,0.0,47,0.00,,,0.00,Wunderground v.1.15,2013-05-05 14:49:00,
2013-05-05 10:55:00,66.0,45.2,30.14,South,171,0.0,0.0,47,0.00,,,0.00,Wunderground v.1.15,2013-05-05 14:55:00,
2013-05-05 11:05:00,66.0,43.5,30.13,WSW,257,0.0,0.0,44,0.00,,,0.00,Wunderground v.1.15,2013-05-05 15:05:00,
2013-05-05 11:15:00,67.3,44.6,30.13,SSW,205,0.0,0.0,44,0.00,,,0.00,Wunderground v.1.15,2013-05-05 15:15:00,
2013-05-05 11:24:00,67.3,42.8,30.13,SW,235,0.0,0.0,41,0.00,,,0.00,Wunderground v.1.15,2013-05-05 15:24:00,
2013-05-05 11:35:00,67.3,42.8,30.13,SSW,213,0.0,0.0,41,0.00,,,0.00,Wunderground v.1.15,2013-05-05 15:35:00,
2013-05-05 11:44:00,67.3,42.8,30.13,SSW,211,0.0,0.0,41,0.00,,,0.00,Wunderground v.1.15,2013-05-05 15:44:00,
2013-05-05 11:54:00,67.6,40.4,30.12,SW,220,0.0,0.0,37,0.00,,,0.00,Wunderground v.1.15,2013-05-05 15:54:00,
2013-05-05 12:00:00,67.9,42.7,30.12,SW,215,0.0,0.0,40,0.00,,,0.00,Wunderground v.1.15,2013-05-05 16:00:00,
2013-05-05 12:05:00,68.3,41.0,30.12,WSW,244,0.0,0.0,37,0.00,,,0.00,Wunderground v.1.15,2013-05-05 16:05:00,
2013-05-05 12:15:00,68.6,40.6,30.12,SW,220,0.0,0.0,36,0.00,,,0.00,Wunderground v.1.15,2013-05-05 16:15:00,
2013-05-05 12:24:00,68.8,40.0,30.11,SSW,204,0.0,0.0,35,0.00,,,0.00,Wunderground v.1.15,2013-05-05 16:24:00,
2013-05-05 12:35:00,69.6,40.7,30.10,South,186,0.0,0.0,35,0.00,,,0.00,Wunderground v.1.15,2013-05-05 16:35:00,
2013-05-05 12:44:00,70.6,40.1,30.10,ESE,117,0.0,0.0,33,0.00,,,0.00,Wunderground v.1.15,2013-05-05 16:44:00,
2013-05-05 12:54:00,71.5,42.4,30.09,South,181,0.0,0.0,35,0.00,,,0.00,Wunderground v.1.15,2013-05-05 16:54:00,
2013-05-05 13:05:00,70.9,41.9,30.09,South,186,0.0,0.0,35,0.00,,,0.00,Wunderground v.1.15,2013-05-05 17:05:00,
2013-05-05 13:15:00,71.5,39.3,30.09,South,180,0.0,0.0,31,0.00,,,0.00,Wunderground v.1.15,2013-05-05 17:15:00,
2013-05-05 13:24:00,72.0,39.7,30.08,SW,222,0.0,0.0,31,0.00,,,0.00,Wunderground v.1.15,2013-05-05 17:24:00,
2013-05-05 13:35:00,71.6,37.6,30.08,ESE,109,0.0,0.0,29,0.00,,,0.00,Wunderground v.1.15,2013-05-05 17:35:00,
2013-05-05 13:44:00,72.1,37.2,30.08,SSE,166,0.0,0.0,28,0.00,,,0.00,Wunderground v.1.15,2013-05-05 17:44:00,
2013-05-05 13:54:00,72.1,41.4,30.08,SW,216,0.0,0.0,33,0.00,,,0.00,Wunderground v.1.15,2013-05-05 17:54:00,
2013-05-05 14:00:00,72.0,36.2,30.08,ESE,106,0.0,0.0,27,0.00,,,0.00,Wunderground v.1.15,2013-05-05 18:00:00,
2013-05-05 14:05:00,72.3,35.5,30.07,South,171,0.0,0.0,26,0.00,,,0.00,Wunderground v.1.15,2013-05-05 18:05:00,
2013-05-05 14:14:00,72.1,33.3,30.07,South,191,0.0,0.0,24,0.00,,,0.00,Wunderground v.1.15,2013-05-05 18:14:00,
2013-05-05 14:24:00,72.3,36.4,30.07,SE,132,0.0,0.0,27,0.00,,,0.00,Wunderground v.1.15,2013-05-05 18:24:00,
2013-05-05 14:34:00,73.2,38.1,30.06,WSW,248,0.0,0.0,28,0.00,,,0.00,Wunderground v.1.15,2013-05-05 18:34:00,
2013-05-05 14:44:00,73.2,38.1,30.06,South,187,0.0,0.0,28,0.00,,,0.00,Wunderground v.1.15,2013-05-05 18:44:00,
2013-05-05 14:54:00,73.0,38.0,30.06,South,183,0.0,0.0,28,0.00,,,0.00,Wunderground v.1.15,2013-05-05 18:54:00,
2013-05-05 14:59:00,73.3,38.2,30.06,WSW,243,0.0,0.0,28,0.00,,,0.00,Wunderground v.1.15,2013-05-05 18:59:00,
2013-05-05 15:05:00,73.5,39.3,30.05,SSW,209,0.0,0.0,29,0.00,,,0.00,Wunderground v.1.15,2013-05-05 19:05:00,
2013-05-05 15:14:00,73.5,38.4,30.05,SSW,199,0.0,0.0,28,0.00,,,0.00,Wunderground v.1.15,2013-05-05 19:14:00,
2013-05-05 15:24:00,74.2,37.1,30.05,ESE,115,0.0,0.0,26,0.00,,,0.00,Wunderground v.1.15,2013-05-05 19:24:00,
2013-05-05 15:29:00,73.9,36.8,30.05,SSW,207,0.0,0.0,26,0.00,,,0.00,Wunderground v.1.15,2013-05-05 19:29:00,
2013-05-05 15:39:00,73.5,37.5,30.04,SSW,198,0.0,0.0,27,0.00,,,0.00,Wunderground v.1.15,2013-05-05 19:39:00,
2013-05-05 15:49:00,74.4,39.2,30.03,South,174,0.0,0.0,28,0.00,,,0.00,Wunderground v.1.15,2013-05-05 19:49:00,
2013-05-05 15:59:00,74.0,38.8,30.03,SSW,192,0.0,0.0,28,0.00,,,0.00,Wunderground v.1.15,2013-05-05 19:59:00,
2013-05-05 16:05:00,73.9,38.7,30.03,WSW,253,0.0,0.0,28,0.00,,,0.00,Wunderground v.1.15,2013-05-05 20:05:00,
2013-05-05 16:14:00,73.9,37.8,30.03,SW,233,0.0,0.0,27,0.00,,,0.00,Wunderground v.1.15,2013-05-05 20:14:00,
2013-05-05 16:24:00,73.9,36.8,30.02,SSW,193,0.0,0.0,26,0.00,,,0.00,Wunderground v.1.15,2013-05-05 20:24:00,
2013-05-05 16:34:00,74.6,38.4,30.02,SSW,211,0.0,0.0,27,0.00,,,0.00,Wunderground v.1.15,2013-05-05 20:34:00,
2013-05-05 16:44:00,74.6,37.4,30.02,SSW,209,0.0,0.0,26,0.00,,,0.00,Wunderground v.1.15,2013-05-05 20:44:00,
2013-05-05 16:49:00,74.4,39.2,30.02,SW,234,0.0,0.0,28,0.00,,,0.00,Wunderground v.1.15,2013-05-05 20:49:00,
2013-05-05 16:59:00,74.4,39.2,30.02,SSW,204,0.0,0.0,28,0.00,,,0.00,Wunderground v.1.15,2013-05-05 20:59:00,
2013-05-05 17:05:00,74.6,38.4,30.02,SSW,204,0.0,0.0,27,0.00,,,0.00,Wunderground v.1.15,2013-05-05 21:05:00,
2013-05-05 17:14:00,74.4,37.3,30.02,SSW,199,0.0,0.0,26,0.00,,,0.00,Wunderground v.1.15,2013-05-05 21:14:00,
2013-05-05 17:24:00,74.7,35.5,30.01,South,173,0.0,0.0,24,0.00,,,0.00,Wunderground v.1.15,2013-05-05 21:24:00,
2013-05-05 17:29:00,74.7,37.5,30.01,SSW,198,0.0,0.0,26,0.00,,,0.00,Wunderground v.1.15,2013-05-05 21:29:00,
2013-05-05 17:39:00,74.2,36.1,30.01,SW,236,0.0,0.0,25,0.00,,,0.00,Wunderground v.1.15,2013-05-05 21:39:00,
2013-05-05 17:49:00,74.0,33.8,30.01,SSW,207,0.0,0.0,23,0.00,,,0.00,Wunderground v.1.15,2013-05-05 21:49:00,
2013-05-05 17:54:00,74.4,34.2,30.01,SSW,207,0.0,0.0,23,0.00,,,0.00,Wunderground v.1.15,2013-05-05 21:54:00,
2013-05-05 18:05:00,74.7,35.5,30.01,SSW,203,0.0,0.0,24,0.00,,,0.00,Wunderground v.1.15,2013-05-05 22:05:00,
2013-05-05 18:14:00,74.0,33.8,30.01,SSW,210,0.0,0.0,23,0.00,,,0.00,Wunderground v.1.15,2013-05-05 22:14:00,
2013-05-05 18:24:00,73.7,35.7,30.01,SSW,201,0.0,0.0,25,0.00,,,0.00,Wunderground v.1.15,2013-05-05 22:24:00,
2013-05-05 18:34:00,74.0,33.8,30.01,ESE,107,0.0,0.0,23,0.00,,,0.00,Wunderground v.1.15,2013-05-05 22:34:00,
2013-05-05 18:39:00,74.2,35.1,30.01,SE,124,0.0,0.0,24,0.00,,,0.00,Wunderground v.1.15,2013-05-05 22:39:00,
2013-05-05 18:49:00,74.0,32.7,30.00,SE,124,0.0,0.0,22,0.00,,,0.00,Wunderground v.1.15,2013-05-05 22:49:00,
2013-05-05 18:59:00,73.9,34.8,30.00,SSW,201,0.0,0.0,24,0.00,,,0.00,Wunderground v.1.15,2013-05-05 22:59:00,
2013-05-05 19:05:00,73.3,34.3,30.00,SSW,201,0.0,0.0,24,0.00,,,0.00,Wunderground v.1.15,2013-05-05 23:05:00,
2013-05-05 19:14:00,73.2,34.2,30.00,SSW,201,0.0,0.0,24,0.00,,,0.00,Wunderground v.1.15,2013-05-05 23:14:00,
2013-05-05 19:19:00,73.2,35.2,30.01,SSW,201,0.0,0.0,25,0.00,,,0.00,Wunderground v.1.15,2013-05-05 23:19:00,
2013-05-05 19:29:00,73.0,35.1,30.01,SSW,201,0.0,0.0,25,0.00,,,0.00,Wunderground v.1.15,2013-05-05 23:29:00,
2013-05-05 19:39:00,72.3,33.5,30.01,SSW,201,0.0,0.0,24,0.00,,,0.00,Wunderground v.1.15,2013-05-05 23:39:00,
2013-05-05 19:44:00,71.8,36.9,30.01,SSW,201,0.0,0.0,28,0.00,,,0.00,Wunderground v.1.15,2013-05-05 23:44:00,
2013-05-05 19:54:00,70.4,35.7,30.01,SSW,201,0.0,0.0,28,0.00,,,0.00,Wunderground v.1.15,2013-05-05 23:54:00,
2013-05-05 20:04:00,68.9,36.2,30.01,SSW,201,0.0,0.0,30,0.00,,,0.00,Wunderground v.1.15,2013-05-06 00:04:00,
2013-05-05 20:14:00,66.8,37.5,30.01,SSW,201,0.0,0.0,34,0.00,,,0.00,Wunderground v.1.15,2013-05-06 00:14:00,
2013-05-05 20:19:00,66.0,38.3,30.02,SSW,201,0.0,0.0,36,0.00,,,0.00,Wunderground v.1.15,2013-05-06 00:19:00,
2013-05-05 20:29:00,64.3,41.3,30.02,SSW,201,0.0,0.0,43,0.00,,,0.00,Wunderground v.1.15,2013-05-06 00:29:00,
2013-05-05 20:39:00,62.0,35.4,30.03,SSW,201,0.0,0.0,37,0.00,,,0.00,Wunderground v.1.15,2013-05-06 00:39:00,
2013-05-05 20:49:00,62.9,32.6,30.03,SSW,202,0.0,0.0,32,0.00,,,0.00,Wunderground v.1.15,2013-05-06 00:49:00,
2013-05-05 20:59:00,64.0,31.1,30.03,SSW,202,0.0,0.0,29,0.00,,,0.00,Wunderground v.1.15,2013-05-06 00:59:00,
2013-05-05 21:04:00,63.9,32.6,30.04,SSW,202,0.0,0.0,31,0.00,,,0.00,Wunderground v.1.15,2013-05-06 01:04:00,
2013-05-05 21:14:00,63.7,31.7,30.04,SSW,202,0.0,0.0,30,0.00,,,0.00,Wunderground v.1.15,2013-05-06 01:14:00,
2013-05-05 21:19:00,63.4,31.4,30.04,SSW,202,0.0,0.0,30,0.00,,,0.00,Wunderground v.1.15,2013-05-06 01:19:00,
2013-05-05 21:29:00,63.4,29.7,30.04,SSW,201,0.0,0.0,28,0.00,,,0.00,Wunderground v.1.15,2013-05-06 01:29:00,
2013-05-05 21:39:00,62.9,29.3,30.05,SSW,201,0.0,0.0,28,0.00,,,0.00,Wunderground v.1.15,2013-05-06 01:39:00,
2013-05-05 21:49:00,62.7,29.1,30.04,SSW,201,0.0,0.0,28,0.00,,,0.00,Wunderground v.1.15,2013-05-06 01:49:00,
2013-05-05 21:59:00,62.9,26.5,30.04,SSW,201,0.0,0.0,25,0.00,,,0.00,Wunderground v.1.15,2013-05-06 01:59:00,
2013-05-05 22:04:00,63.1,26.7,30.05,SSW,201,0.0,0.0,25,0.00,,,0.00,Wunderground v.1.15,2013-05-06 02:04:00,
2013-05-05 22:14:00,62.9,26.5,30.05,SSW,201,0.0,0.0,25,0.00,,,0.00,Wunderground v.1.15,2013-05-06 02:14:00,
2013-05-05 22:19:00,62.6,27.2,30.05,SSE,161,0.0,0.0,26,0.00,,,0.00,Wunderground v.1.15,2013-05-06 02:19:00,
2013-05-05 22:29:00,61.8,26.5,30.05,SSE,159,0.0,0.0,26,0.00,,,0.00,Wunderground v.1.15,2013-05-06 02:29:00,
2013-05-05 22:39:00,61.0,30.9,30.05,South,186,0.0,0.0,32,0.00,,,0.00,Wunderground v.1.15,2013-05-06 02:39:00,
2013-05-05 22:49:00,60.1,26.9,30.06,South,186,0.0,0.0,28,0.00,,,0.00,Wunderground v.1.15,2013-05-06 02:49:00,
2013-05-05 22:59:00,60.2,26.1,30.06,South,186,0.0,0.0,27,0.00,,,0.00,Wunderground v.1.15,2013-05-06 02:59:00,
2013-05-05 23:04:00,60.1,26.9,30.06,South,186,0.0,0.0,28,0.00,,,0.00,Wunderground v.1.15,2013-05-06 03:04:00,
2013-05-05 23:14:00,59.8,24.8,30.06,South,176,0.0,0.0,26,0.00,,,0.00,Wunderground v.1.15,2013-05-06 03:14:00,
2013-05-05 23:24:00,60.1,25.1,30.06,South,176,0.0,0.0,26,0.00,,,0.00,Wunderground v.1.15,2013-05-06 03:24:00,
2013-05-05 23:29:00,60.1,25.1,30.06,South,176,0.0,0.0,26,0.00,,,0.00,Wunderground v.1.15,2013-05-06 03:29:00,
2013-05-05 23:39:00,60.1,26.0,30.06,South,176,0.0,0.0,27,0.00,,,0.00,Wunderground v.1.15,2013-05-06 03:39:00,
2013-05-05 23:49:00,-999.9,-99.9,30.06,North,32767,-999.0,0.0,255,-99.99,,,0.00,Wunderground v.1.15,2013-05-06 03:49:00,
2013-05-05 23:54:00,-999.9,-99.9,30.05,North,32767,-999.0,0.0,255,-99.99,,,0.00,Wunderground v.1.15,2013-05-06 03:54:00,